South Webster, Ohio
Current Conditions -  °F | °C
As of 8:51 AM on Monday 26 Jan 2015 (Local Time) from KHTS Reporting Station
Light Snow Light Snow  
Wind Chill: 20°   Ceiling: 800
Heat Index: 29°   Visibility: 1.7mi
Dew Point: 28°   Wind: 10mph
Humidity: 96%   Direction: 310°NW
Pressure: 29.74"   Gusts: 17mph
Location:  38.81°N, 82.73°W
Report Text: KHTS 261351Z 31009G15KT 1 3/4SM -SN BR OVC008 M02/M02 A2974 RMK AO2 RAE1252SNB1252 CIG 005V011 SLP075 P0001 T10171022
Loading
Personal Weather Stations






























Interactive Weather Map New forecast layout! Learn more

10-Day Weather Forecast

Advertisements
Track Severe Weather on mobile